Time;durP1;ratioP1;P1;durP2;ratioP2;P2;SDS_P1;SDS_P2;PMS_P1;PMS_P2;Temp;Humidity;BMP_temperature;BMP_pressure;BME280_temperature;BME280_humidity;BME280_pressure;Samples;Min_cycle;Max_cycle;Signal;HPM_P1;HPM_P2
2022/04/06 00:01:19;;;;;;;;;;;;;;;;;;5013158;28;1092;-69
2022/04/06 00:03:47;;;;;;;;;;;;;;;;;;5012952;28;815;-68
2022/04/06 00:06:13;;;;;;;;;;;;;;;;;;5012416;28;1040;-69
2022/04/06 00:08:39;;;;;;;;;;;;;;;;;;5012899;28;1282;-69
2022/04/06 00:11:06;;;;;;;;;;;;;;;;;;5045067;22;3984;-66
2022/04/06 00:13:32;;;;;;;;;;;;;;;;;;5072351;28;1142;-65
2022/04/06 00:15:58;;;;;;;;;;;;;;;;;;5071870;28;1914;-65
2022/04/06 00:18:24;;;;;;;;;;;;;;;;;;5072713;28;964;-65
2022/04/06 00:20:52;;;;;;;;;;;;;;;;;;5072382;28;1306;-67
2022/04/06 00:23:18;;;;;;;;;;;;;;;;;;5072531;28;997;-66
2022/04/06 00:25:44;;;;;;;;;;;;;;;;;;5072140;28;1072;-66
2022/04/06 00:28:10;;;;;;;;;;;;;;;;;;5072348;28;1071;-67
2022/04/06 00:30:37;;;;;;;;;;;;;;;;;;5072430;28;1392;-68
2022/04/06 00:33:03;;;;;;;;;;;;;;;;;;5072604;28;815;-67
2022/04/06 00:35:29;;;;;;;;;;;;;;;;;;5071811;28;1910;-66
2022/04/06 00:37:57;;;;;;;;;;;;;;;;;;5071828;28;932;-67
2022/04/06 00:40:23;;;;;;;;;;;;;;;;;;5072149;28;1320;-67
2022/04/06 00:42:50;;;;;;;;;;;;;;;;;;5071925;28;1463;-67
2022/04/06 00:45:16;;;;;;;;;;;;;;;;;;5071686;28;1142;-67
2022/04/06 00:47:42;;;;;;;;;;;;;;;;;;5072087;28;763;-67
2022/04/06 00:50:09;;;;;;;;;;;;;;;;;;5072154;28;1084;-66
2022/04/06 00:52:35;;;;;;;;;;;;;;;;;;5072756;28;1281;-67
2022/04/06 00:55:03;;;;;;;;;;;;;;;;;;5071130;28;1944;-67
2022/04/06 00:57:29;;;;;;;;;;;;;;;;;;5070593;28;1075;-66
2022/04/06 00:59:56;;;;;;;;;;;;;;;;;;5071955;28;878;-67
2022/04/06 01:02:22;;;;;;;;;;;;;;;;;;5071863;28;1303;-67
2022/04/06 01:04:48;;;;;;;;;;;;;;;;;;5071586;28;735;-67
2022/04/06 01:07:14;;;;;;;;;;;;;;;;;;5071723;28;1249;-66
2022/04/06 01:09:40;;;;;;;;;;;;;;;;;;5071617;28;924;-65
2022/04/06 01:12:08;;;;;;;;;;;;;;;;;;5071691;28;1264;-67
2022/04/06 01:14:35;;;;;;;;;;;;;;;;;;5071270;28;1129;-67
2022/04/06 01:17:02;;;;;;;;;;;;;;;;;;5071316;28;1977;-66
2022/04/06 01:19:31;;;;;;;;;;;;;;;;;;5071637;28;871;-66
2022/04/06 01:21:58;;;;;;;;;;;;;;;;;;5071487;28;1257;-68
2022/04/06 01:24:25;;;;;;;;;;;;;;;;;;5071301;28;798;-67
2022/04/06 01:26:52;;;;;;;;;;;;;;;;;;5071006;28;841;-67
2022/04/06 01:29:18;;;;;;;;;;;;;;;;;;5053683;28;1071;-67
2022/04/06 01:31:44;;;;;;;;;;;;;;;;;;5071038;28;1391;-68
2022/04/06 01:34:10;;;;;;;;;;;;;;;;;;5071118;28;905;-67
2022/04/06 01:36:37;;;;;;;;;;;;;;;;;;5070475;28;1968;-67
2022/04/06 01:39:03;;;;;;;;;;;;;;;;;;5071474;28;1067;-65
2022/04/06 01:41:34;;;;;;;;;;;;;;;;;;5071017;28;1300;-67
2022/04/06 01:44:00;;;;;;;;;;;;;;;;;;5070849;28;1119;-67
2022/04/06 01:46:27;;;;;;;;;;;;;;;;;;5070601;28;877;-67
2022/04/06 01:54:22;;;;;;;;;;;;;;;;;;5070839;28;988;-66
2022/04/06 01:56:49;;;;;;;;;;;;;;;;;;5052218;28;1910;-68
2022/04/06 01:59:15;;;;;;;;;;;;;;;;;;5070749;28;1063;-67
2022/04/06 02:01:43;;;;;;;;;;;;;;;;;;5070721;28;1412;-66
2022/04/06 02:04:13;;;;;;;;;;;;;;;;;;5070693;28;922;-66
2022/04/06 02:06:39;;;;;;;;;;;;;;;;;;5070148;28;822;-67
2022/04/06 02:09:05;;;;;;;;;;;;;;;;;;5070054;28;1009;-67
2022/04/06 02:11:31;;;;;;;;;;;;;;;;;;5052119;28;1379;-67
2022/04/06 02:13:59;;;;;;;;;;;;;;;;;;5070354;28;874;-67
2022/04/06 02:16:25;;;;;;;;;;;;;;;;;;5070241;28;1976;-66
2022/04/06 02:18:51;;;;;;;;;;;;;;;;;;5069931;28;688;-67
2022/04/06 02:21:17;;;;;;;;;;;;;;;;;;5070448;28;1299;-66
2022/04/06 02:23:44;;;;;;;;;;;;;;;;;;5070739;28;843;-66
2022/04/06 02:26:10;;;;;;;;;;;;;;;;;;5070245;28;1088;-65
2022/04/06 02:28:36;;;;;;;;;;;;;;;;;;5070037;28;1107;-66
2022/04/06 02:31:03;;;;;;;;;;;;;;;;;;5070224;28;1300;-68
2022/04/06 02:33:30;;;;;;;;;;;;;;;;;;5070026;28;1527;-65
2022/04/06 02:35:56;;;;;;;;;;;;;;;;;;5070115;28;1931;-66
2022/04/06 02:38:22;;;;;;;;;;;;;;;;;;5069512;28;621;-67
2022/04/06 02:40:48;;;;;;;;;;;;;;;;;;5069956;28;1361;-66
2022/04/06 02:43:14;;;;;;;;;;;;;;;;;;5070448;28;1102;-64
2022/04/06 02:45:41;;;;;;;;;;;;;;;;;;5070113;28;886;-66
2022/04/06 02:48:08;;;;;;;;;;;;;;;;;;5069868;28;739;-66
2022/04/06 02:50:35;;;;;;;;;;;;;;;;;;5070241;28;1299;-67
2022/04/06 02:53:01;;;;;;;;;;;;;;;;;;5069629;28;1075;-66
2022/04/06 02:55:27;;;;;;;;;;;;;;;;;;5070341;28;1067;-66
2022/04/06 02:57:53;;;;;;;;;;;;;;;;;;5069753;28;1914;-66
2022/04/06 03:00:20;;;;;;;;;;;;;;;;;;5070093;28;1379;-64
2022/04/06 03:02:46;;;;;;;;;;;;;;;;;;5070152;28;1139;-66
2022/04/06 03:05:14;;;;;;;;;;;;;;;;;;5069957;28;1106;-66
2022/04/06 03:07:40;;;;;;;;;;;;;;;;;;5071085;28;762;-66
2022/04/06 03:10:06;;;;;;;;;;;;;;;;;;5070112;28;1067;-67
2022/04/06 03:12:33;;;;;;;;;;;;;;;;;;5069503;28;1344;-66
2022/04/06 03:14:59;;;;;;;;;;;;;;;;;;5069705;28;853;-67
2022/04/06 03:17:25;;;;;;;;;;;;;;;;;;5069524;28;1976;-67
2022/04/06 03:19:51;;;;;;;;;;;;;;;;;;5069720;28;1119;-66
2022/04/06 03:22:19;;;;;;;;;;;;;;;;;;5072980;28;1293;-66
2022/04/06 03:24:45;;;;;;;;;;;;;;;;;;5073303;28;1064;-66
2022/04/06 03:27:11;;;;;;;;;;;;;;;;;;5073264;28;1067;-66
2022/04/06 03:29:37;;;;;;;;;;;;;;;;;;5073527;28;771;-66
2022/04/06 03:32:04;;;;;;;;;;;;;;;;;;5073468;28;1418;-67
2022/04/06 03:34:30;;;;;;;;;;;;;;;;;;5073280;28;1083;-66
2022/04/06 03:36:56;;;;;;;;;;;;;;;;;;5072943;28;1989;-66
2022/04/06 03:39:24;;;;;;;;;;;;;;;;;;5073434;28;850;-66
2022/04/06 03:41:50;;;;;;;;;;;;;;;;;;5064190;28;1671;-66
2022/04/06 03:44:17;;;;;;;;;;;;;;;;;;5065683;28;1704;-67
2022/04/06 03:46:43;;;;;;;;;;;;;;;;;;5061817;28;1246;-66
2022/04/06 03:49:09;;;;;;;;;;;;;;;;;;5073292;28;1226;-66
2022/04/06 03:51:35;;;;;;;;;;;;;;;;;;5073092;28;1282;-66
2022/04/06 03:54:03;;;;;;;;;;;;;;;;;;5073510;28;1067;-66
2022/04/06 03:56:30;;;;;;;;;;;;;;;;;;5072793;28;1977;-67
2022/04/06 03:58:56;;;;;;;;;;;;;;;;;;5073108;28;1067;-67
2022/04/06 04:01:23;;;;;;;;;;;;;;;;;;5072784;28;1322;-67
2022/04/06 04:03:49;;;;;;;;;;;;;;;;;;5073125;28;807;-66
2022/04/06 04:06:15;;;;;;;;;;;;;;;;;;5072416;28;1060;-66
2022/04/06 04:08:41;;;;;;;;;;;;;;;;;;5072608;28;1005;-67
2022/04/06 04:11:08;;;;;;;;;;;;;;;;;;5072403;28;1378;-67
2022/04/06 04:13:35;;;;;;;;;;;;;;;;;;5072958;28;1135;-67
2022/04/06 04:16:01;;;;;;;;;;;;;;;;;;5072970;28;1971;-67
2022/04/06 04:18:28;;;;;;;;;;;;;;;;;;5072584;28;1122;-67
2022/04/06 04:21:31;;;;;;;;;;;;;;;;;;5072543;28;1329;-67
2022/04/06 04:23:41;;;;;;;;;;;;;;;;;;5072071;28;2019;-67
2022/04/06 04:26:07;;;;;;;;;;;;;;;;;;5072074;28;1051;-66
2022/04/06 04:28:34;;;;;;;;;;;;;;;;;;5072477;28;794;-65
2022/04/06 04:31:01;;;;;;;;;;;;;;;;;;5072570;28;1316;-66
2022/04/06 04:33:27;;;;;;;;;;;;;;;;;;5072249;28;1064;-65
2022/04/06 04:35:53;;;;;;;;;;;;;;;;;;5072255;28;1408;-65
2022/04/06 04:38:20;;;;;;;;;;;;;;;;;;5072453;28;1975;-67
2022/04/06 04:40:46;;;;;;;;;;;;;;;;;;5070074;28;1551;-67
2022/04/06 04:43:12;;;;;;;;;;;;;;;;;;5060896;28;1633;-67
2022/04/06 04:45:38;;;;;;;;;;;;;;;;;;5054091;28;1036;-67
2022/04/06 04:48:06;;;;;;;;;;;;;;;;;;5056432;28;1594;-67
2022/04/06 04:50:32;;;;;;;;;;;;;;;;;;5062203;28;1578;-65
2022/04/06 04:52:58;;;;;;;;;;;;;;;;;;5059049;28;1569;-66
2022/04/06 04:55:25;;;;;;;;;;;;;;;;;;5069072;28;1344;-66
2022/04/06 04:57:51;;;;;;;;;;;;;;;;;;5069808;28;1914;-67
2022/04/06 05:00:17;;;;;;;;;;;;;;;;;;5054859;28;1594;-64
2022/04/06 05:02:43;;;;;;;;;;;;;;;;;;5057574;28;1539;-67
2022/04/06 05:05:11;;;;;;;;;;;;;;;;;;5053306;28;1542;-67
2022/04/06 05:07:38;;;;;;;;;;;;;;;;;;5069699;28;1064;-67
2022/04/06 05:10:04;;;;;;;;;;;;;;;;;;5069136;28;1512;-67
2022/04/06 05:12:30;;;;;;;;;;;;;;;;;;5050021;28;1376;-66
2022/04/06 05:14:59;;;;;;;;;;;;;;;;;;5049757;28;1539;-65
2022/04/06 05:17:25;;;;;;;;;;;;;;;;;;5057434;28;1941;-66
2022/04/06 05:19:51;;;;;;;;;;;;;;;;;;5067551;28;1546;-66
2022/04/06 05:22:18;;;;;;;;;;;;;;;;;;5057690;28;1575;-66
2022/04/06 05:24:45;;;;;;;;;;;;;;;;;;5069012;28;1047;-66
2022/04/06 05:27:11;;;;;;;;;;;;;;;;;;5068672;28;1380;-67
2022/04/06 05:29:38;;;;;;;;;;;;;;;;;;5069125;28;1168;-67
2022/04/06 05:32:04;;;;;;;;;;;;;;;;;;5068810;28;1522;-66
2022/04/06 05:34:31;;;;;;;;;;;;;;;;;;5067419;28;1621;-67
2022/04/06 05:36:57;;;;;;;;;;;;;;;;;;5067478;28;1975;-67
2022/04/06 05:39:24;;;;;;;;;;;;;;;;;;5051129;28;1180;-64
2022/04/06 05:41:51;;;;;;;;;;;;;;;;;;5064880;28;1594;-65
2022/04/06 05:44:17;;;;;;;;;;;;;;;;;;5059062;28;1079;-66
2022/04/06 05:46:43;;;;;;;;;;;;;;;;;;5067503;28;1558;-66
2022/04/06 05:49:09;;;;;;;;;;;;;;;;;;5070239;28;1172;-66
2022/04/06 05:51:36;;;;;;;;;;;;;;;;;;5058632;28;1380;-66
2022/04/06 05:54:02;;;;;;;;;;;;;;;;;;5069910;28;1122;-66
2022/04/06 05:56:30;;;;;;;;;;;;;;;;;;5056026;28;1646;-66
2022/04/06 05:58:56;;;;;;;;;;;;;;;;;;5055122;28;1997;-66
2022/04/06 06:01:22;;;;;;;;;;;;;;;;;;5070514;28;1310;-66
2022/04/06 06:03:49;;;;;;;;;;;;;;;;;;5066247;28;1511;-67
2022/04/06 06:06:15;;;;;;;;;;;;;;;;;;5050361;28;980;-66
2022/04/06 06:08:42;;;;;;;;;;;;;;;;;;5065758;28;1401;-66
2022/04/06 06:11:08;;;;;;;;;;;;;;;;;;5063100;28;1412;-66
2022/04/06 06:13:35;;;;;;;;;;;;;;;;;;5061780;22;4225;-69
2022/04/06 06:16:01;;;;;;;;;;;;;;;;;;5029321;28;1379;-69
2022/04/06 06:18:28;;;;;;;;;;;;;;;;;;5028202;28;1922;-70
2022/04/06 06:20:56;;;;;;;;;;;;;;;;;;5029455;28;1056;-70
2022/04/06 06:23:22;;;;;;;;;;;;;;;;;;5029384;28;1418;-69
2022/04/06 06:25:48;;;;;;;;;;;;;;;;;;5029934;28;1345;-69
2022/04/06 06:28:14;;;;;;;;;;;;;;;;;;5028131;28;1064;-69
2022/04/06 06:30:42;;;;;;;;;;;;;;;;;;5029425;28;1607;-69
2022/04/06 06:33:08;;;;;;;;;;;;;;;;;;5024360;28;1559;-69
2022/04/06 06:35:34;;;;;;;;;;;;;;;;;;5029960;28;1424;-69
2022/04/06 06:38:00;;;;;;;;;;;;;;;;;;5029320;28;1890;-69
2022/04/06 06:40:27;;;;;;;;;;;;;;;;;;5029352;28;1391;-68
2022/04/06 06:42:53;;;;;;;;;;;;;;;;;;5029479;28;1647;-68
2022/04/06 06:45:19;;;;;;;;;;;;;;;;;;5028979;28;1396;-68
2022/04/06 06:47:47;;;;;;;;;;;;;;;;;;5029145;28;1560;-69
2022/04/06 06:50:14;;;;;;;;;;;;;;;;;;5029272;28;957;-69
2022/04/06 06:52:40;;;;;;;;;;;;;;;;;;5028832;28;1555;-70
2022/04/06 06:55:07;;;;;;;;;;;;;;;;;;5023969;28;1631;-68
2022/04/06 06:57:34;;;;;;;;;;;;;;;;;;5033466;28;1916;-72
2022/04/06 07:00:00;;;;;;;;;;;;;;;;;;5033748;28;1642;-69
2022/04/06 07:02:26;;;;;;;;;;;;;;;;;;5033317;28;1068;-69
2022/04/06 07:04:54;;;;;;;;;;;;;;;;;;5033189;28;1365;-68
2022/04/06 07:07:20;;;;;;;;;;;;;;;;;;5031949;28;1606;-69
2022/04/06 07:09:46;;;;;;;;;;;;;;;;;;5033288;28;1710;-68
2022/04/06 07:12:13;;;;;;;;;;;;;;;;;;5033512;28;945;-69
2022/04/06 07:14:39;;;;;;;;;;;;;;;;;;5032968;28;1547;-69
2022/04/06 07:17:05;;;;;;;;;;;;;;;;;;5032787;28;1918;-69
2022/04/06 07:19:31;;;;;;;;;;;;;;;;;;5033579;28;1348;-69
2022/04/06 07:21:59;;;;;;;;;;;;;;;;;;5033216;28;1127;-69
2022/04/06 07:24:25;;;;;;;;;;;;;;;;;;5029195;28;1641;-69
2022/04/06 07:26:51;;;;;;;;;;;;;;;;;;5032789;28;1440;-68
2022/04/06 07:29:17;;;;;;;;;;;;;;;;;;5033211;28;846;-69
2022/04/06 07:31:44;;;;;;;;;;;;;;;;;;5032697;28;1338;-68
2022/04/06 07:34:10;;;;;;;;;;;;;;;;;;5030481;28;1488;-69
2022/04/06 07:36:36;;;;;;;;;;;;;;;;;;5014597;28;1598;-69
2022/04/06 07:39:04;;;;;;;;;;;;;;;;;;5033517;28;1973;-69
2022/04/06 07:41:31;;;;;;;;;;;;;;;;;;5032501;28;1571;-69
2022/04/06 07:43:57;;;;;;;;;;;;;;;;;;5032755;28;1579;-68
2022/04/06 07:46:23;;;;;;;;;;;;;;;;;;5032357;28;1627;-66
2022/04/06 07:48:49;;;;;;;;;;;;;;;;;;5032589;28;1393;-68
2022/04/06 07:51:15;;;;;;;;;;;;;;;;;;5032561;28;1218;-67
2022/04/06 07:53:42;;;;;;;;;;;;;;;;;;5032267;28;1432;-68
2022/04/06 07:56:09;;;;;;;;;;;;;;;;;;5032107;28;1622;-68
2022/04/06 07:58:36;;;;;;;;;;;;;;;;;;5032874;28;1918;-67
2022/04/06 08:01:02;;;;;;;;;;;;;;;;;;5032270;28;1737;-67
2022/04/06 08:03:29;;;;;;;;;;;;;;;;;;5032582;28;1307;-68
2022/04/06 08:05:56;;;;;;;;;;;;;;;;;;5032341;28;1631;-67
2022/04/06 08:08:22;;;;;;;;;;;;;;;;;;5025365;28;1168;-67
2022/04/06 08:10:48;;;;;;;;;;;;;;;;;;5031646;28;1366;-67
2022/04/06 08:13:16;;;;;;;;;;;;;;;;;;5031082;28;1492;-68
2022/04/06 08:15:42;;;;;;;;;;;;;;;;;;5032600;28;952;-70
2022/04/06 08:18:08;;;;;;;;;;;;;;;;;;5025943;28;1918;-68
2022/04/06 08:20:34;;;;;;;;;;;;;;;;;;5023399;28;1248;-70
2022/04/06 08:23:01;;;;;;;;;;;;;;;;;;5032059;28;1399;-68
2022/04/06 08:25:27;;;;;;;;;;;;;;;;;;5031878;28;1127;-68
2022/04/06 08:27:53;;;;;;;;;;;;;;;;;;5032210;28;1576;-68
2022/04/06 08:30:22;;;;;;;;;;;;;;;;;;5024513;28;1543;-67
2022/04/06 08:32:48;;;;;;;;;;;;;;;;;;5013472;28;1615;-67
2022/04/06 08:35:14;;;;;;;;;;;;;;;;;;5031748;28;1052;-68
2022/04/06 08:37:41;;;;;;;;;;;;;;;;;;5030922;28;1914;-68
2022/04/06 08:40:08;;;;;;;;;;;;;;;;;;5024600;28;1559;-68
2022/04/06 08:42:34;;;;;;;;;;;;;;;;;;5036848;28;1400;-68
2022/04/06 08:45:00;;;;;;;;;;;;;;;;;;5032280;28;1382;-70
2022/04/06 08:47:28;;;;;;;;;;;;;;;;;;5031292;28;1575;-69
2022/04/06 08:49:54;;;;;;;;;;;;;;;;;;5031354;28;1693;-69
2022/04/06 08:52:20;;;;;;;;;;;;;;;;;;5031541;28;1052;-68
2022/04/06 08:54:46;;;;;;;;;;;;;;;;;;5031561;28;1455;-68
2022/04/06 08:57:13;;;;;;;;;;;;;;;;;;5031109;28;1638;-67
2022/04/06 08:59:39;;;;;;;;;;;;;;;;;;5013776;28;2202;-68
2022/04/06 09:02:05;;;;;;;;;;;;;;;;;;5031224;28;1333;-67
2022/04/06 09:04:35;;;;;;;;;;;;;;;;;;5031139;28;1397;-68
2022/04/06 09:07:06;;;;;;;;;;;;;;;;;;5030922;28;1111;-68
2022/04/06 09:09:32;;;;;;;;;;;;;;;;;;5031345;28;1653;-68
2022/04/06 09:11:58;;;;;;;;;;;;;;;;;;5031565;28;1139;-67
2022/04/06 09:14:29;;;;;;;;;;;;;;;;;;5023325;28;1631;-68
2022/04/06 09:17:00;;;;;;;;;;;;;;;;;;5031066;28;942;-68
2022/04/06 09:19:27;;;;;;;;;;;;;;;;;;5029478;28;1915;-69
2022/04/06 09:21:55;;;;;;;;;;;;;;;;;;5030671;28;1630;-68
2022/04/06 09:24:22;;;;;;;;;;;;;;;;;;5030886;28;1345;-69
2022/04/06 09:26:55;;;;;;;;;;;;;;;;;;5030084;28;1440;-67
2022/04/06 09:29:21;;;;;;;;;;;;;;;;;;5031068;28;1079;-67
2022/04/06 09:31:48;;;;;;;;;;;;;;;;;;5030638;28;1575;-67
2022/04/06 09:34:14;;;;;;;;;;;;;;;;;;5030777;28;1379;-67
2022/04/06 09:36:41;;;;;;;;;;;;;;;;;;5029546;28;1444;-68
2022/04/06 09:39:08;;;;;;;;;;;;;;;;;;5030705;28;1918;-68
2022/04/06 09:41:34;;;;;;;;;;;;;;;;;;5029840;28;1341;-68
2022/04/06 09:44:07;;;;;;;;;;;;;;;;;;5030517;28;1317;-68
2022/04/06 09:49:18;;;;;;;;;;;;;;;;;;5038442;28;1051;-66
2022/04/06 09:51:45;;;;;;;;;;;;;;;;;;5031661;28;1411;-67
2022/04/06 09:54:13;;;;;;;;;;;;;;;;;;5030116;28;1555;-68
2022/04/06 09:56:40;;;;;;;;;;;;;;;;;;5029936;28;2215;-68
2022/04/06 09:59:07;;;;;;;;;;;;;;;;;;5030080;28;1965;-67
2022/04/06 10:01:34;;;;;;;;;;;;;;;;;;5037589;28;1642;-67
2022/04/06 10:04:02;;;;;;;;;;;;;;;;;;5030194;28;1343;-69
2022/04/06 10:06:28;;;;;;;;;;;;;;;;;;5029870;28;1630;-69
2022/04/06 10:08:54;;;;;;;;;;;;;;;;;;5029832;28;1836;-69
2022/04/06 10:11:21;;;;;;;;;;;;;;;;;;5029778;28;1429;-69
2022/04/06 10:13:48;;;;;;;;;;;;;;;;;;5030119;28;1350;-66
2022/04/06 10:16:14;;;;;;;;;;;;;;;;;;5018130;28;1575;-69
2022/04/06 10:18:40;;;;;;;;;;;;;;;;;;5027235;28;1973;-69
2022/04/06 10:21:10;;;;;;;;;;;;;;;;;;5028908;28;1396;-68
2022/04/06 10:23:40;;;;;;;;;;;;;;;;;;5028725;28;1420;-68
2022/04/06 10:26:08;;;;;;;;;;;;;;;;;;5020706;28;992;-66
2022/04/06 10:28:35;;;;;;;;;;;;;;;;;;5029872;28;1330;-67
2022/04/06 10:31:14;;;;;;;;;;;;;;;;;;5040957;28;1679;-68
2022/04/06 10:33:40;;;;;;;;;;;;;;;;;;5029033;28;1509;-69
2022/04/06 10:36:16;;;;;;;;;;;;;;;;;;5029599;28;1202;-66
2022/04/06 10:38:42;;;;;;;;;;;;;;;;;;5029614;28;1967;-69
2022/04/06 10:41:08;;;;;;;;;;;;;;;;;;5029085;28;1366;-69
2022/04/06 10:43:52;;;;;;;;;;;;;;;;;;5029545;28;1484;-68
2022/04/06 10:46:21;;;;;;;;;;;;;;;;;;5028584;28;1587;-69
2022/04/06 10:48:56;;;;;;;;;;;;;;;;;;5028876;28;1611;-69
2022/04/06 10:51:30;;;;;;;;;;;;;;;;;;5029153;28;1686;-69
2022/04/06 10:53:56;;;;;;;;;;;;;;;;;;5029268;28;1603;-69
2022/04/06 10:56:23;;;;;;;;;;;;;;;;;;5028366;28;1638;-69
2022/04/06 10:59:09;;;;;;;;;;;;;;;;;;5029508;28;1899;-68
2022/04/06 11:01:36;;;;;;;;;;;;;;;;;;5028326;28;1602;-69
2022/04/06 11:04:04;;;;;;;;;;;;;;;;;;5029264;28;1713;-69
2022/04/06 11:06:48;;;;;;;;;;;;;;;;;;5029238;28;881;-69
2022/04/06 11:12:05;;;;;;;;;;;;;;;;;;5028928;28;1385;-69
2022/04/06 11:14:33;;;;;;;;;;;;;;;;;;5029067;28;1419;-70
2022/04/06 11:16:59;;;;;;;;;;;;;;;;;;5028725;28;1408;-69
2022/04/06 11:19:26;;;;;;;;;;;;;;;;;;5028822;28;1918;-70
2022/04/06 11:21:52;;;;;;;;;;;;;;;;;;5028560;28;1571;-69
2022/04/06 11:24:19;;;;;;;;;;;;;;;;;;5028941;28;1401;-68
2022/04/06 11:26:46;;;;;;;;;;;;;;;;;;5029296;28;985;-69
2022/04/06 11:29:12;;;;;;;;;;;;;;;;;;5029127;28;1599;-69
2022/04/06 11:31:53;;;;;;;;;;;;;;;;;;5028686;28;1448;-69
2022/04/06 11:34:29;;;;;;;;;;;;;;;;;;5009510;28;1402;-68
2022/04/06 11:36:57;;;;;;;;;;;;;;;;;;5017266;28;1432;-66
2022/04/06 11:39:23;;;;;;;;;;;;;;;;;;5029283;28;1910;-68
2022/04/06 11:41:50;;;;;;;;;;;;;;;;;;5029274;28;946;-68
2022/04/06 11:44:17;;;;;;;;;;;;;;;;;;5032387;28;1312;-69
2022/04/06 11:46:45;;;;;;;;;;;;;;;;;;5033606;28;1626;-69
2022/04/06 11:49:12;;;;;;;;;;;;;;;;;;5033892;28;1606;-69
2022/04/06 11:51:39;;;;;;;;;;;;;;;;;;5032828;28;1599;-70
2022/04/06 11:54:05;;;;;;;;;;;;;;;;;;5032275;28;1508;-70
2022/04/06 11:56:31;;;;;;;;;;;;;;;;;;5031707;28;1560;-70
2022/04/06 11:58:58;;;;;;;;;;;;;;;;;;5032552;28;1984;-70
2022/04/06 12:01:28;;;;;;;;;;;;;;;;;;5032632;28;1686;-70
2022/04/06 12:03:58;;;;;;;;;;;;;;;;;;5027171;28;1487;-70
2022/04/06 12:06:31;;;;;;;;;;;;;;;;;;5032274;28;1599;-71
2022/04/06 12:08:57;;;;;;;;;;;;;;;;;;5031697;28;1606;-70
2022/04/06 12:11:23;;;;;;;;;;;;;;;;;;5032387;28;1131;-68
2022/04/06 12:13:49;;;;;;;;;;;;;;;;;;5030844;28;1669;-70
2022/04/06 12:16:15;;;;;;;;;;;;;;;;;;5031644;28;1072;-69
2022/04/06 12:18:42;;;;;;;;;;;;;;;;;;5042345;22;3711;-65
2022/04/06 12:21:18;;;;;;;;;;;;;;;;;;5026313;28;1372;-66
2022/04/06 12:23:46;;;;;;;;;;;;;;;;;;5031712;28;1507;-66
2022/04/06 12:26:13;;;;;;;;;;;;;;;;;;5031476;28;1373;-66
2022/04/06 12:28:39;;;;;;;;;;;;;;;;;;5029310;28;1469;-66
2022/04/06 12:31:05;;;;;;;;;;;;;;;;;;5031565;28;1334;-65
2022/04/06 12:33:35;;;;;;;;;;;;;;;;;;5031331;28;1738;-67
2022/04/06 12:36:12;;;;;;;;;;;;;;;;;;5029696;28;1249;-65
2022/04/06 12:38:39;;;;;;;;;;;;;;;;;;5027852;28;1505;-65
2022/04/06 12:41:11;;;;;;;;;;;;;;;;;;5029257;28;1976;-66
2022/04/06 12:43:38;;;;;;;;;;;;;;;;;;5027264;28;1495;-67
2022/04/06 12:46:04;;;;;;;;;;;;;;;;;;5041948;28;1155;-67
2022/04/06 12:48:30;;;;;;;;;;;;;;;;;;5044792;28;1484;-65
2022/04/06 12:50:57;;;;;;;;;;;;;;;;;;5031060;28;1276;-66
2022/04/06 12:53:24;;;;;;;;;;;;;;;;;;5029478;28;1607;-65
2022/04/06 12:56:05;;;;;;;;;;;;;;;;;;5031712;28;1088;-68
2022/04/06 12:58:32;;;;;;;;;;;;;;;;;;5023056;28;1568;-65
2022/04/06 13:00:58;;;;;;;;;;;;;;;;;;5031724;28;1922;-67
2022/04/06 13:03:25;;;;;;;;;;;;;;;;;;5031095;28;1639;-67
2022/04/06 13:05:51;;;;;;;;;;;;;;;;;;5030243;28;1464;-65
2022/04/06 13:08:19;;;;;;;;;;;;;;;;;;5019931;28;1484;-67
2022/04/06 13:10:46;;;;;;;;;;;;;;;;;;5028604;28;1642;-65
2022/04/06 13:13:12;;;;;;;;;;;;;;;;;;5030495;28;1300;-68
2022/04/06 13:15:39;;;;;;;;;;;;;;;;;;5012884;28;1812;-68
2022/04/06 13:18:07;;;;;;;;;;;;;;;;;;5022901;28;1552;-67
2022/04/06 13:20:34;;;;;;;;;;;;;;;;;;5025533;28;1902;-68
2022/04/06 13:23:00;;;;;;;;;;;;;;;;;;5019510;28;1068;-67
2022/04/06 13:25:26;;;;;;;;;;;;;;;;;;5030148;28;1596;-66
2022/04/06 13:27:52;;;;;;;;;;;;;;;;;;5030745;28;1647;-66
2022/04/06 13:30:19;;;;;;;;;;;;;;;;;;5016151;28;1683;-67
2022/04/06 13:32:47;;;;;;;;;;;;;;;;;;5018569;28;1647;-66
2022/04/06 13:35:14;;;;;;;;;;;;;;;;;;5022696;28;1596;-67
2022/04/06 13:37:40;;;;;;;;;;;;;;;;;;5030876;28;1612;-66
2022/04/06 13:40:07;;;;;;;;;;;;;;;;;;5030734;28;1981;-67
2022/04/06 13:42:33;;;;;;;;;;;;;;;;;;5030220;28;1237;-67
2022/04/06 13:45:01;;;;;;;;;;;;;;;;;;5016096;28;1308;-68
2022/04/06 13:47:27;;;;;;;;;;;;;;;;;;5030067;28;1272;-68
2022/04/06 13:49:55;;;;;;;;;;;;;;;;;;5030291;28;1356;-68
2022/04/06 13:52:21;;;;;;;;;;;;;;;;;;5030205;28;1272;-65
2022/04/06 13:54:47;;;;;;;;;;;;;;;;;;5030907;28;811;-66
2022/04/06 13:57:14;;;;;;;;;;;;;;;;;;5030795;28;993;-66
2022/04/06 13:59:40;;;;;;;;;;;;;;;;;;5012805;28;1986;-67
2022/04/06 14:02:06;;;;;;;;;;;;;;;;;;5022319;28;1430;-67
2022/04/06 14:04:32;;;;;;;;;;;;;;;;;;5025431;28;1623;-68
2022/04/06 14:07:02;;;;;;;;;;;;;;;;;;5009945;28;1560;-68
2022/04/06 14:09:28;;;;;;;;;;;;;;;;;;5030348;28;1437;-67
2022/04/06 14:11:56;;;;;;;;;;;;;;;;;;5013421;28;1298;-67
2022/04/06 14:14:22;;;;;;;;;;;;;;;;;;5024353;28;907;-67
2022/04/06 14:16:49;;;;;;;;;;;;;;;;;;5028774;28;1584;-65
2022/04/06 14:19:15;;;;;;;;;;;;;;;;;;5022116;28;1989;-67
2022/04/06 14:21:41;;;;;;;;;;;;;;;;;;5029497;28;1576;-67
2022/04/06 14:24:09;;;;;;;;;;;;;;;;;;5012364;28;1568;-66
2022/04/06 14:26:36;;;;;;;;;;;;;;;;;;5029424;28;1457;-67
2022/04/06 14:29:02;;;;;;;;;;;;;;;;;;5027872;28;1615;-67
2022/04/06 14:31:28;;;;;;;;;;;;;;;;;;5028771;28;1309;-68
2022/04/06 14:33:55;;;;;;;;;;;;;;;;;;5024736;28;1571;-68
2022/04/06 14:36:21;;;;;;;;;;;;;;;;;;5027472;28;1421;-68
2022/04/06 14:38:47;;;;;;;;;;;;;;;;;;5022890;28;1479;-68
2022/04/06 14:41:15;;;;;;;;;;;;;;;;;;5020035;28;2632;-67
2022/04/06 14:43:41;;;;;;;;;;;;;;;;;;5029085;28;1433;-67
2022/04/06 14:46:07;;;;;;;;;;;;;;;;;;5029627;28;1576;-67
2022/04/06 14:48:33;;;;;;;;;;;;;;;;;;5030022;28;1338;-65
2022/04/06 14:50:59;;;;;;;;;;;;;;;;;;5028363;28;1616;-66
2022/04/06 14:53:26;;;;;;;;;;;;;;;;;;5029396;28;907;-66
2022/04/06 14:55:52;;;;;;;;;;;;;;;;;;5029168;28;1604;-66
2022/04/06 14:58:20;;;;;;;;;;;;;;;;;;5026329;28;1479;-68
2022/04/06 15:00:46;;;;;;;;;;;;;;;;;;5021258;28;1989;-66
2022/04/06 15:03:13;;;;;;;;;;;;;;;;;;5025935;28;1515;-67
2022/04/06 15:05:39;;;;;;;;;;;;;;;;;;5025398;28;1584;-67
2022/04/06 15:08:08;;;;;;;;;;;;;;;;;;5029092;28;1429;-66
2022/04/06 15:10:35;;;;;;;;;;;;;;;;;;5027579;28;1643;-68
2022/04/06 15:13:01;;;;;;;;;;;;;;;;;;5027996;28;1671;-68
2022/04/06 15:15:28;;;;;;;;;;;;;;;;;;5029765;28;1196;-67
2022/04/06 15:17:56;;;;;;;;;;;;;;;;;;5024247;28;2106;-67
2022/04/06 15:20:22;;;;;;;;;;;;;;;;;;5033171;28;1911;-67
2022/04/06 15:22:49;;;;;;;;;;;;;;;;;;5021697;28;1560;-67
2022/04/06 15:25:15;;;;;;;;;;;;;;;;;;5033974;28;926;-66
2022/04/06 15:27:41;;;;;;;;;;;;;;;;;;5036962;28;1269;-68
2022/04/06 15:30:08;;;;;;;;;;;;;;;;;;5030506;28;1495;-68
2022/04/06 15:32:35;;;;;;;;;;;;;;;;;;5025256;28;1595;-67
2022/04/06 15:37:45;;;;;;;;;;;;;;;;;;5032694;28;1278;-67
2022/04/06 15:40:12;;;;;;;;;;;;;;;;;;5014329;28;1984;-67
2022/04/06 15:42:38;;;;;;;;;;;;;;;;;;5032713;28;1600;-67
2022/04/06 15:45:05;;;;;;;;;;;;;;;;;;5031859;28;1584;-67
2022/04/06 15:47:32;;;;;;;;;;;;;;;;;;5015401;28;1666;-67
2022/04/06 15:50:00;;;;;;;;;;;;;;;;;;5021179;28;2166;-66
2022/04/06 15:52:27;;;;;;;;;;;;;;;;;;5031122;28;1354;-68
2022/04/06 15:54:53;;;;;;;;;;;;;;;;;;5025640;28;1337;-67
2022/04/06 15:57:19;;;;;;;;;;;;;;;;;;5013635;28;1009;-67
2022/04/06 15:59:46;;;;;;;;;;;;;;;;;;5025334;28;1971;-66
2022/04/06 16:02:12;;;;;;;;;;;;;;;;;;5021003;28;1118;-67
2022/04/06 16:04:39;;;;;;;;;;;;;;;;;;5030080;28;1250;-68
2022/04/06 16:07:07;;;;;;;;;;;;;;;;;;5033284;28;873;-66
2022/04/06 16:09:34;;;;;;;;;;;;;;;;;;5032980;28;1294;-67
2022/04/06 16:12:01;;;;;;;;;;;;;;;;;;5015354;28;1829;-68
2022/04/06 16:14:27;;;;;;;;;;;;;;;;;;5033408;28;639;-68
2022/04/06 16:16:58;;;;;;;;;;;;;;;;;;5033157;28;949;-68
2022/04/06 16:19:24;;;;;;;;;;;;;;;;;;5033030;28;1336;-68
2022/04/06 16:21:50;;;;;;;;;;;;;;;;;;5032989;28;1918;-68
2022/04/06 16:24:18;;;;;;;;;;;;;;;;;;5033151;28;1072;-68
2022/04/06 16:26:44;;;;;;;;;;;;;;;;;;5032795;28;969;-66
2022/04/06 16:29:10;;;;;;;;;;;;;;;;;;5032620;28;1401;-68
2022/04/06 16:31:36;;;;;;;;;;;;;;;;;;5033063;28;1079;-66
2022/04/06 16:34:03;;;;;;;;;;;;;;;;;;5032743;28;878;-67
2022/04/06 16:36:33;;;;;;;;;;;;;;;;;;5033163;28;1249;-68
2022/04/06 16:39:01;;;;;;;;;;;;;;;;;;5029575;28;1484;-69
2022/04/06 16:41:30;;;;;;;;;;;;;;;;;;5032764;28;1906;-68
2022/04/06 16:43:56;;;;;;;;;;;;;;;;;;5032959;28;1079;-68
2022/04/06 16:46:25;;;;;;;;;;;;;;;;;;5049841;28;1230;-67
2022/04/06 16:48:51;;;;;;;;;;;;;;;;;;5052737;28;1347;-66
2022/04/06 16:54:02;;;;;;;;;;;;;;;;;;5052549;28;1024;-67
2022/04/06 16:56:29;;;;;;;;;;;;;;;;;;5052260;28;914;-67
2022/04/06 16:58:55;;;;;;;;;;;;;;;;;;5034400;28;1330;-67
2022/04/06 17:01:22;;;;;;;;;;;;;;;;;;5052351;28;1914;-67
2022/04/06 17:03:48;;;;;;;;;;;;;;;;;;5052220;28;1146;-68
2022/04/06 17:06:15;;;;;;;;;;;;;;;;;;5052235;28;787;-67
2022/04/06 17:08:41;;;;;;;;;;;;;;;;;;5052328;28;1377;-68
2022/04/06 17:11:07;;;;;;;;;;;;;;;;;;5052104;28;1138;-68
2022/04/06 17:13:34;;;;;;;;;;;;;;;;;;5052298;28;945;-67
2022/04/06 17:16:01;;;;;;;;;;;;;;;;;;5051948;28;717;-68
2022/04/06 17:18:27;;;;;;;;;;;;;;;;;;5051822;28;1270;-68
2022/04/06 17:20:53;;;;;;;;;;;;;;;;;;5051805;28;1973;-68